Time;durP1;ratioP1;P1;durP2;ratioP2;P2;SDS_P1;SDS_P2;PMS_P1;PMS_P2;Temp;Humidity;BMP_temperature;BMP_pressure;BME280_temperature;BME280_humidity;BME280_pressure;Samples;Min_cycle;Max_cycle;Signal;HPM_P1;HPM_P2
2023/04/08 00:00:40;;;;;;;;;;;;;;;7.41;100.00;102175.22;5016027;28;1898;-77
2023/04/08 00:03:06;;;;;;;;;;;;;;;7.41;100.00;102165.75;5033975;28;1011;-77
2023/04/08 00:05:32;;;;;;;;;;;;;;;7.40;100.00;102169.22;5028019;28;1015;-77
2023/04/08 00:07:57;;;;;;;;;;;;;;;7.40;100.00;102174.41;5027397;28;1215;-78
2023/04/08 00:10:23;;;;;;;;;;;;;;;7.41;100.00;102165.75;5024227;28;1180;-77
2023/04/08 00:12:49;;;;;;;;;;;;;;;7.40;100.00;102166.66;5029251;28;1144;-76
2023/04/08 00:15:14;;;;;;;;;;;;;;;7.38;100.00;102171.03;5024973;28;1478;-76
2023/04/08 00:17:40;;;;;;;;;;;;;;;7.42;100.00;102169.16;5014817;28;1338;-78
2023/04/08 00:20:05;;;;;;;;;;;;;;;7.42;100.00;102167.41;5019901;28;1882;-76
2023/04/08 00:22:31;;;;;;;;;;;;;;;7.43;100.00;102174.25;5011156;28;1255;-77
2023/04/08 00:24:57;;;;;;;;;;;;;;;7.42;100.00;102172.56;5011092;28;1136;-77
2023/04/08 00:27:24;;;;;;;;;;;;;;;7.40;100.00;102166.66;5024100;28;1082;-77
2023/04/08 00:29:50;;;;;;;;;;;;;;;7.38;100.00;102165.88;5014014;28;1398;-77
2023/04/08 00:32:15;;;;;;;;;;;;;;;7.40;100.00;102169.22;5039027;28;1067;-77
2023/04/08 00:34:40;;;;;;;;;;;;;;;7.39;100.00;102175.28;5027746;28;1198;-76
2023/04/08 00:37:06;;;;;;;;;;;;;;;7.35;100.00;102171.19;5025508;28;983;-77
2023/04/08 00:39:31;;;;;;;;;;;;;;;7.31;100.00;102182.56;5027085;28;1935;-78
2023/04/08 00:41:56;;;;;;;;;;;;;;;7.26;100.00;102176.75;5025071;28;1304;-76
2023/04/08 00:44:21;;;;;;;;;;;;;;;7.25;100.00;102182.00;5033340;28;1076;-76
2023/04/08 00:46:47;;;;;;;;;;;;;;;7.23;100.00;102182.09;5010197;28;1291;-77
2023/04/08 00:49:12;;;;;;;;;;;;;;;7.21;100.00;102183.88;5031055;28;1096;-77
2023/04/08 00:51:38;;;;;;;;;;;;;;;7.22;100.00;102180.38;5026358;28;1157;-77
2023/04/08 00:54:04;;;;;;;;;;;;;;;7.20;100.00;102179.63;5027146;28;1291;-77
2023/04/08 00:56:30;;;;;;;;;;;;;;;7.21;100.00;102176.13;5010128;28;1241;-77
2023/04/08 00:58:55;;;;;;;;;;;;;;;7.20;100.00;102177.03;5027364;28;1967;-77
2023/04/08 01:01:38;;;;;;;;;;;;;;;7.21;100.00;102178.72;5030767;28;1015;-77
2023/04/08 01:04:12;;;;;;;;;;;;;;;7.22;100.00;102175.22;5028635;28;1113;-76
2023/04/08 01:06:41;;;;;;;;;;;;;;;7.22;100.00;102182.97;5021963;28;1226;-77
2023/04/08 01:09:08;;;;;;;;;;;;;;;7.23;100.00;102181.25;5024420;28;1101;-77
2023/04/08 01:11:34;;;;;;;;;;;;;;;7.21;100.00;102183.88;5019649;28;1298;-77
2023/04/08 01:14:04;;;;;;;;;;;;;;;7.22;100.00;102176.97;5010637;28;1316;-76
2023/04/08 01:16:29;;;;;;;;;;;;;;;7.22;100.00;102184.72;5023192;28;1108;-77
2023/04/08 01:18:55;;;;;;;;;;;;;;;7.20;100.00;102187.38;5010183;28;1937;-77
2023/04/08 01:21:22;;;;;;;;;;;;;;;7.17;100.00;102183.19;5033524;28;1113;-76
2023/04/08 01:23:59;;;;;;;;;;;;;;;7.17;100.00;102187.53;5018659;28;1363;-77
2023/04/08 01:26:25;;;;;;;;;;;;;;;7.16;100.00;102180.66;5030793;28;1035;-76
2023/04/08 01:28:55;;;;;;;;;;;;;;;7.16;100.00;102185.81;5033924;28;1160;-77
2023/04/08 01:31:21;;;;;;;;;;;;;;;7.14;100.00;102187.66;5014427;28;1260;-77
2023/04/08 01:33:47;;;;;;;;;;;;;;;7.13;100.00;102186.81;5028198;28;951;-76
2023/04/08 01:36:13;;;;;;;;;;;;;;;7.12;100.00;102180.00;5026468;28;1132;-76
2023/04/08 01:38:39;;;;;;;;;;;;;;;7.11;100.00;102190.34;5029781;28;1961;-77
2023/04/08 01:41:07;;;;;;;;;;;;;;;7.11;100.00;102182.63;5025161;28;1049;-76
2023/04/08 01:43:33;;;;;;;;;;;;;;;7.12;100.00;102194.63;5029557;28;1022;-78
2023/04/08 01:46:00;;;;;;;;;;;;;;;7.11;100.00;102192.94;5008730;28;1252;-76
2023/04/08 01:48:25;;;;;;;;;;;;;;;7.09;100.00;102195.59;5025265;28;1098;-77
2023/04/08 01:50:51;;;;;;;;;;;;;;;7.06;100.00;102200.06;5028518;28;1090;-77
2023/04/08 01:53:16;;;;;;;;;;;;;;;7.02;100.00;102203.69;5031899;28;1075;-78
2023/04/08 01:55:42;;;;;;;;;;;;;;;6.97;100.00;102195.31;5023359;28;967;-77
2023/04/08 01:58:08;;;;;;;;;;;;;;;6.95;100.00;102199.72;5008234;28;1318;-76
2023/04/08 02:00:34;;;;;;;;;;;;;;;6.95;100.00;102197.13;5027743;28;1893;-77
2023/04/08 02:03:01;;;;;;;;;;;;;;;6.91;100.00;102202.41;5025790;28;1964;-77
2023/04/08 02:05:26;;;;;;;;;;;;;;;6.92;100.00;102198.09;5028721;28;1097;-77
2023/04/08 02:07:51;;;;;;;;;;;;;;;6.88;100.00;102202.56;5025194;28;1552;-79
2023/04/08 02:10:16;;;;;;;;;;;;;;;6.84;100.00;102206.16;5025817;28;1082;-78
2023/04/08 02:12:43;;;;;;;;;;;;;;;6.82;100.00;102197.66;5030792;28;1136;-76
2023/04/08 02:15:09;;;;;;;;;;;;;;;6.79;100.00;102196.97;5015316;28;1335;-77
2023/04/08 02:17:45;;;;;;;;;;;;;;;6.78;100.00;102197.88;5009052;28;1301;-76
2023/04/08 02:20:31;;;;;;;;;;;;;;;6.75;100.00;102195.41;5027573;28;1944;-77
2023/04/08 02:23:05;;;;;;;;;;;;;;;6.73;100.00;102203.22;5008230;28;1201;-79
2023/04/08 02:25:33;;;;;;;;;;;;;;;6.72;100.00;102205.88;5025714;28;1034;-76
2023/04/08 02:27:59;;;;;;;;;;;;;;;6.62;100.00;102203.69;5026683;28;1002;-77
2023/04/08 02:30:26;;;;;;;;;;;;;;;6.59;100.00;102205.53;5018118;28;1208;-77
2023/04/08 02:32:52;;;;;;;;;;;;;;;6.52;100.00;102211.88;5008623;28;1788;-77
2023/04/08 02:35:18;;;;;;;;;;;;;;;6.50;100.00;102211.94;5026357;28;1161;-76
2023/04/08 02:37:45;;;;;;;;;;;;;;;6.49;100.00;102209.44;5027269;28;1129;-76
2023/04/08 02:40:23;;;;;;;;;;;;;;;6.45;100.00;102202.72;5025977;28;1977;-76
2023/04/08 02:42:48;;;;;;;;;;;;;;;6.42;100.00;102208.00;5028683;28;1074;-77
2023/04/08 02:45:13;;;;;;;;;;;;;;;6.42;100.00;102210.56;5007319;28;1317;-76
2023/04/08 02:47:39;;;;;;;;;;;;;;;6.42;100.00;102210.56;5029352;28;1058;-77
2023/04/08 02:50:04;;;;;;;;;;;;;;;6.40;100.00;102210.66;5015783;28;1385;-76
2023/04/08 02:52:29;;;;;;;;;;;;;;;6.38;100.00;102213.28;5028075;28;1113;-76
2023/04/08 02:54:55;;;;;;;;;;;;;;;6.37;100.00;102216.78;5034633;28;1191;-77
2023/04/08 02:57:20;;;;;;;;;;;;;;;6.35;100.00;102212.56;5029587;28;1085;-77
2023/04/08 02:59:45;;;;;;;;;;;;;;;6.34;100.00;102219.47;5025601;28;1906;-76
2023/04/08 03:02:11;;;;;;;;;;;;;;;6.34;100.00;102223.78;5023865;28;1021;-77
2023/04/08 03:04:36;;;;;;;;;;;;;;;6.35;100.00;102222.88;5033368;28;1109;-78
2023/04/08 03:07:01;;;;;;;;;;;;;;;6.34;100.00;102216.88;5025378;28;1066;-76
2023/04/08 03:09:26;;;;;;;;;;;;;;;6.36;100.00;102220.22;5008481;28;1291;-77
2023/04/08 03:11:53;;;;;;;;;;;;;;;6.36;100.00;102225.38;5004142;28;1256;-76
2023/04/08 03:14:19;;;;;;;;;;;;;;;6.38;100.00;102228.75;5025946;28;1088;-77
2023/04/08 03:16:44;;;;;;;;;;;;;;;6.35;100.00;102228.88;5010266;28;1216;-78
2023/04/08 03:19:09;;;;;;;;;;;;;;;6.36;100.00;102240.84;5017720;28;1961;-76
2023/04/08 03:21:35;;;;;;;;;;;;;;;6.35;100.00;102226.28;5029596;28;1040;-76
2023/04/08 03:24:00;;;;;;;;;;;;;;;6.34;100.00;102227.19;5026582;28;1018;-76
2023/04/08 03:26:26;;;;;;;;;;;;;;;6.32;100.00;102230.75;5025268;28;1178;-78
2023/04/08 03:28:51;;;;;;;;;;;;;;;6.30;100.00;102225.63;5008553;28;1385;-79
2023/04/08 03:31:16;;;;;;;;;;;;;;;6.28;100.00;102224.88;5026661;28;1061;-76
2023/04/08 03:33:42;;;;;;;;;;;;;;;6.25;100.00;102222.44;5035993;28;1204;-77
2023/04/08 03:36:07;;;;;;;;;;;;;;;6.18;100.00;102222.72;5026698;28;1066;-77
2023/04/08 03:38:32;;;;;;;;;;;;;;;6.11;100.00;102232.44;5032309;28;1970;-76
2023/04/08 03:40:57;;;;;;;;;;;;;;;6.09;100.00;102234.25;5023722;28;1089;-78
2023/04/08 03:43:24;;;;;;;;;;;;;;;6.06;100.00;102226.66;5023877;28;1097;-76
2023/04/08 03:45:49;;;;;;;;;;;;;;;6.02;100.00;102235.38;5026102;28;1084;-76
2023/04/08 03:48:14;;;;;;;;;;;;;;;6.02;100.00;102235.38;5025744;28;1002;-76
2023/04/08 03:50:40;;;;;;;;;;;;;;;6.00;100.00;102240.59;5028426;28;1093;-78
2023/04/08 03:53:05;;;;;;;;;;;;;;;5.99;100.00;102240.69;5039571;28;1067;-76
2023/04/08 03:55:30;;;;;;;;;;;;;;;5.94;100.00;102247.75;5011249;28;1213;-77
2023/04/08 03:57:55;;;;;;;;;;;;;;;5.93;100.00;102246.06;5026350;28;1208;-77
2023/04/08 04:00:21;;;;;;;;;;;;;;;5.94;100.00;102247.75;5029981;28;1902;-77
2023/04/08 04:02:46;;;;;;;;;;;;;;;5.89;100.00;102247.88;5029447;28;1084;-76
2023/04/08 04:05:11;;;;;;;;;;;;;;;5.86;100.00;102246.28;5029325;28;992;-77
2023/04/08 04:07:36;;;;;;;;;;;;;;;5.81;100.00;102253.34;5034909;28;1427;-78
2023/04/08 04:10:02;;;;;;;;;;;;;;;5.78;100.00;102258.59;5014600;28;1762;-76
2023/04/08 04:12:27;;;;;;;;;;;;;;;5.75;100.00;102266.44;5027770;28;1216;-79
2023/04/08 04:14:52;;;;;;;;;;;;;;;5.76;100.00;102260.41;5032263;28;1163;-76
2023/04/08 04:17:17;;;;;;;;;;;;;;;5.74;100.00;102262.19;5010659;28;1188;-79
2023/04/08 04:19:42;;;;;;;;;;;;;;;5.72;100.00;102263.97;5013374;28;1953;-78
2023/04/08 04:22:09;;;;;;;;;;;;;;;5.67;100.00;102271.03;5025922;28;1069;-77
2023/04/08 04:24:34;;;;;;;;;;;;;;;5.64;100.00;102270.34;5027820;28;1244;-78
2023/04/08 04:26:59;;;;;;;;;;;;;;;5.64;100.00;102266.03;5026856;28;1192;-76
2023/04/08 04:29:24;;;;;;;;;;;;;;;5.64;100.00;102263.44;5011915;28;1311;-77
2023/04/08 04:31:50;;;;;;;;;;;;;;;5.63;100.00;102279.78;5018346;28;1257;-77
2023/04/08 04:34:15;;;;;;;;;;;;;;;5.59;100.00;102273.06;5010946;28;1205;-76
2023/04/08 04:36:40;;;;;;;;;;;;;;;5.53;100.00;102284.44;5021253;28;1197;-78
2023/04/08 04:39:05;;;;;;;;;;;;;;;5.53;100.00;102283.59;5031718;28;1891;-77
2023/04/08 04:41:31;;;;;;;;;;;;;;;5.53;100.00;102288.75;5027817;28;1215;-77
2023/04/08 04:43:56;;;;;;;;;;;;;;;5.55;100.00;102281.78;5025569;28;1069;-78
2023/04/08 04:46:21;;;;;;;;;;;;;;;5.58;100.00;102286.84;5007389;28;1165;-76
2023/04/08 04:48:46;;;;;;;;;;;;;;;5.59;100.00;102285.94;5025700;28;1214;-76
2023/04/08 04:51:11;;;;;;;;;;;;;;;5.61;100.00;102281.56;5034084;28;1326;-77
2023/04/08 04:53:37;;;;;;;;;;;;;;;5.59;100.00;102288.50;5018568;28;1215;-76
2023/04/08 04:56:02;;;;;;;;;;;;;;;5.48;100.00;102288.91;5028593;28;1010;-77
2023/04/08 04:58:27;;;;;;;;;;;;;;;5.38;100.00;102295.28;5027838;28;1130;-77
2023/04/08 05:00:53;;;;;;;;;;;;;;;5.27;100.00;102290.50;5028791;28;1963;-76
2023/04/08 05:03:18;;;;;;;;;;;;;;;5.22;100.00;102297.59;5018444;28;1219;-76
2023/04/08 05:05:43;;;;;;;;;;;;;;;5.16;100.00;102302.94;5026239;28;1078;-77
2023/04/08 05:08:08;;;;;;;;;;;;;;;5.12;100.00;102298.78;5027200;28;1142;-76
2023/04/08 05:10:34;;;;;;;;;;;;;;;5.09;100.00;102298.88;5031578;28;1152;-76
2023/04/08 05:12:59;;;;;;;;;;;;;;;5.09;100.00;102309.16;5029474;28;912;-78
2023/04/08 05:15:25;;;;;;;;;;;;;;;5.05;100.00;102308.47;5016831;28;1220;-77
2023/04/08 05:17:50;;;;;;;;;;;;;;;5.09;100.00;102316.88;5007621;28;1236;-76
2023/04/08 05:20:15;;;;;;;;;;;;;;;5.10;100.00;102316.00;5023370;28;1890;-77
2023/04/08 05:22:43;;;;;;;;;;;;;;;5.07;100.00;102322.09;5027492;28;1203;-78
2023/04/08 05:25:08;;;;;;;;;;;;;;;4.99;100.00;102318.97;5014655;28;1319;-76
2023/04/08 05:27:34;;;;;;;;;;;;;;;4.99;100.00;102323.25;5009259;28;1319;-76
2023/04/08 05:29:59;;;;;;;;;;;;;;;5.00;100.00;102325.78;5027269;28;1049;-76
2023/04/08 05:32:25;;;;;;;;;;;;;;;5.01;100.00;102331.75;5024071;28;1007;-79
2023/04/08 05:34:50;;;;;;;;;;;;;;;4.99;100.00;102324.09;5027463;28;1021;-76
2023/04/08 05:37:15;;;;;;;;;;;;;;;5.04;100.00;102324.75;5027119;28;986;-77
2023/04/08 05:39:41;;;;;;;;;;;;;;;4.97;100.00;102335.31;5029316;28;1913;-76
2023/04/08 05:42:06;;;;;;;;;;;;;;;4.96;100.00;102336.22;5014431;28;1292;-76
2023/04/08 05:44:31;;;;;;;;;;;;;;;4.96;100.00;102333.63;5008255;28;1252;-77
2023/04/08 05:46:57;;;;;;;;;;;;;;;4.97;100.00;102350.75;5028643;28;1049;-75
2023/04/08 05:49:22;;;;;;;;;;;;;;;4.93;100.00;102350.03;5027762;28;1141;-77
2023/04/08 05:51:47;;;;;;;;;;;;;;;4.86;100.00;102348.53;5034182;28;1217;-76
2023/04/08 05:54:13;;;;;;;;;;;;;;;4.80;100.00;102353.88;5035141;28;1164;-76
2023/04/08 05:56:38;;;;;;;;;;;;;;;4.75;100.00;102346.31;5036248;28;1072;-76
2023/04/08 05:59:03;;;;;;;;;;;;;;;4.69;100.00;102351.66;5034736;28;1898;-77
2023/04/08 06:01:28;;;;;;;;;;;;;;;4.63;100.00;102349.28;5026305;28;1095;-76
2023/04/08 06:03:57;;;;;;;;;;;;;;;4.60;100.00;102351.97;5027094;28;1128;-76
2023/04/08 06:06:22;;;;;;;;;;;;;;;4.55;100.00;102356.41;5025786;28;1054;-77
2023/04/08 06:08:47;;;;;;;;;;;;;;;4.53;100.00;102363.34;5023487;28;1342;-77
2023/04/08 06:11:13;;;;;;;;;;;;;;;4.52;100.00;102369.34;5008677;28;1307;-77
2023/04/08 06:13:38;;;;;;;;;;;;;;;4.50;100.00;102368.56;5026369;28;1688;-75
2023/04/08 06:16:10;;;;;;;;;;;;;;;4.45;100.00;102362.72;5007984;28;1208;-78
2023/04/08 06:18:36;;;;;;;;;;;;;;;4.47;100.00;102376.34;5026846;28;1898;-76
2023/04/08 06:21:01;;;;;;;;;;;;;;;4.43;100.00;102374.78;5012581;28;1212;-77
2023/04/08 06:23:26;;;;;;;;;;;;;;;4.40;100.00;102370.56;5030286;28;1125;-76
2023/04/08 06:25:52;;;;;;;;;;;;;;;4.40;100.00;102382.56;5026093;28;1126;-77
2023/04/08 06:28:17;;;;;;;;;;;;;;;4.44;100.00;102386.72;5032976;28;1118;-76
2023/04/08 06:30:43;;;;;;;;;;;;;;;4.49;100.00;102384.88;5030046;28;1002;-76
2023/04/08 06:33:08;;;;;;;;;;;;;;;4.46;100.00;102384.94;5024118;28;1150;-76
2023/04/08 06:35:33;;;;;;;;;;;;;;;4.39;100.00;102389.44;5019739;28;1188;-76
2023/04/08 06:37:58;;;;;;;;;;;;;;;4.38;100.00;102389.50;5028182;28;1005;-76
2023/04/08 06:40:24;;;;;;;;;;;;;;;4.42;100.00;102396.22;5009293;28;1957;-76
2023/04/08 06:42:49;;;;;;;;;;;;;;;4.44;100.00;102399.56;5013718;28;1323;-76
2023/04/08 06:45:14;;;;;;;;;;;;;;;4.45;100.00;102393.53;5026225;28;1114;-77
2023/04/08 06:47:39;;;;;;;;;;;;;;;4.52;100.00;102400.16;5027126;28;1183;-76
2023/04/08 06:50:05;;;;;;;;;;;;;;;4.52;100.00;102402.72;5025632;28;1093;-78
2023/04/08 06:52:30;;;;;;;;;;;;;;;4.46;100.00;102400.34;5026077;28;1078;-78
2023/04/08 06:54:55;;;;;;;;;;;;;;;4.46;100.00;102400.34;5011375;28;1201;-75
2023/04/08 06:57:21;;;;;;;;;;;;;;;4.52;100.00;102400.16;5024194;28;1117;-77
2023/04/08 06:59:46;;;;;;;;;;;;;;;4.52;100.00;102406.13;5021707;28;1926;-76
2023/04/08 07:02:11;;;;;;;;;;;;;;;4.53;100.00;102407.00;5032656;28;1246;-76
2023/04/08 07:04:36;;;;;;;;;;;;;;;4.55;100.00;102415.50;5008599;28;1317;-76
2023/04/08 07:07:01;;;;;;;;;;;;;;;4.53;100.00;102418.13;5031262;28;1056;-75
2023/04/08 07:09:27;;;;;;;;;;;;;;;4.52;100.00;102431.00;5009869;28;1299;-76
2023/04/08 07:11:52;;;;;;;;;;;;;;;4.52;100.00;102431.00;5020355;28;1105;-75
2023/04/08 07:14:18;;;;;;;;;;;;;;;4.50;100.00;102432.78;5022440;28;1005;-76
2023/04/08 07:16:43;;;;;;;;;;;;;;;4.42;100.00;102429.63;5023753;28;1126;-78
2023/04/08 07:19:09;;;;;;;;;;;;;;;4.30;100.00;102435.97;5008764;28;1922;-80
2023/04/08 07:21:34;;;;;;;;;;;;;;;4.32;100.00;102443.63;5018482;28;1363;-76
2023/04/08 07:24:00;;;;;;;;;;;;;;;4.33;100.00;102435.84;5013464;28;1451;-76
2023/04/08 07:26:27;;;;;;;;;;;;;;;4.31;100.00;102447.06;5022564;28;1097;-76
2023/04/08 07:28:52;;;;;;;;;;;;;;;4.29;100.00;102448.81;5025016;28;1073;-76
2023/04/08 07:31:17;;;;;;;;;;;;;;;4.30;100.00;102456.50;5020836;28;1130;-76
2023/04/08 07:33:44;;;;;;;;;;;;;;;4.36;100.00;102456.31;5028065;28;1042;-78
2023/04/08 07:36:10;;;;;;;;;;;;;;;4.44;100.00;102448.38;5024934;28;1083;-77
2023/04/08 07:38:35;;;;;;;;;;;;;;;4.47;100.00;102449.16;5029930;28;1046;-77
2023/04/08 07:41:01;;;;;;;;;;;;;;;4.48;100.00;102460.25;5033828;28;1028;-76
2023/04/08 07:43:26;;;;;;;;;;;;;;;4.46;100.00;102462.00;5020725;28;1215;-76
2023/04/08 07:45:51;;;;;;;;;;;;;;;4.41;100.00;102456.16;5029263;28;1086;-76
2023/04/08 07:48:16;;;;;;;;;;;;;;;4.43;100.00;102446.72;5029521;28;1080;-76
2023/04/08 07:50:42;;;;;;;;;;;;;;;4.37;100.00;102458.00;5031276;28;1192;-77
2023/04/08 07:53:07;;;;;;;;;;;;;;;4.40;100.00;102459.63;5032821;28;1066;-76
2023/04/08 07:55:33;;;;;;;;;;;;;;;4.39;100.00;102463.09;5028491;28;1516;-76
2023/04/08 07:57:58;;;;;;;;;;;;;;;4.42;100.00;102460.44;5014798;28;1361;-77
2023/04/08 08:00:23;;;;;;;;;;;;;;;4.45;100.00;102462.91;5034097;28;1890;-76
2023/04/08 08:02:49;;;;;;;;;;;;;;;4.51;100.00;102461.00;5012920;28;1262;-77
2023/04/08 08:05:14;;;;;;;;;;;;;;;4.53;100.00;102458.41;5036159;28;1338;-75
2023/04/08 08:07:39;;;;;;;;;;;;;;;4.53;100.00;102463.53;5027071;28;1140;-76
2023/04/08 08:10:05;;;;;;;;;;;;;;;4.58;100.00;102465.94;5009337;28;1216;-77
2023/04/08 08:12:30;;;;;;;;;;;;;;;4.61;100.00;102466.69;5018708;28;1177;-75
2023/04/08 08:14:57;;;;;;;;;;;;;;;4.64;100.00;102458.88;5028693;28;1156;-76
2023/04/08 08:17:23;;;;;;;;;;;;;;;4.65;100.00;102452.88;5027160;28;1115;-76
2023/04/08 08:19:48;;;;;;;;;;;;;;;4.66;100.00;102459.69;5026512;28;1890;-76
2023/04/08 08:22:14;;;;;;;;;;;;;;;4.67;100.00;102463.94;5010675;28;1944;-77
2023/04/08 08:24:39;;;;;;;;;;;;;;;4.66;100.00;102464.84;5021306;28;1394;-77
2023/04/08 08:27:05;;;;;;;;;;;;;;;4.71;100.00;102480.97;5030865;28;1160;-77
2023/04/08 08:29:30;;;;;;;;;;;;;;;4.74;100.00;102487.72;5029439;28;955;-75
2023/04/08 08:31:55;;;;;;;;;;;;;;;4.77;100.00;102488.47;5034820;28;1191;-76
2023/04/08 08:34:20;;;;;;;;;;;;;;;4.83;100.00;102491.75;5007840;28;1164;-76
2023/04/08 08:36:46;;;;;;;;;;;;;;;4.79;100.00;102480.72;5027938;28;1062;-78
2023/04/08 08:39:11;;;;;;;;;;;;;;;4.83;100.00;102491.75;5019113;28;1906;-77
2023/04/08 08:41:36;;;;;;;;;;;;;;;4.87;100.00;102494.16;5032483;28;1109;-77
2023/04/08 08:44:04;;;;;;;;;;;;;;;4.89;100.00;102500.13;5014731;28;1214;-76
2023/04/08 08:46:29;;;;;;;;;;;;;;;4.86;100.00;102496.78;5026207;28;1329;-76
2023/04/08 08:48:55;;;;;;;;;;;;;;;4.90;100.00;102508.66;5033352;28;1113;-77
2023/04/08 08:51:20;;;;;;;;;;;;;;;4.98;100.00;102497.25;5012134;28;1338;-77
2023/04/08 08:53:46;;;;;;;;;;;;;;;5.10;100.00;102490.88;5028304;28;1201;-77
2023/04/08 08:56:11;;;;;;;;;;;;;;;5.24;100.00;102499.00;5028559;28;1074;-78
2023/04/08 08:58:37;;;;;;;;;;;;;;;5.38;100.00;102498.53;5028599;28;1148;-76
2023/04/08 09:01:23;;;;;;;;;;;;;;;5.50;100.00;102495.56;5013032;28;1963;-77
2023/04/08 09:04:05;;;;;;;;;;;;;;;5.63;100.00;102496.00;5027257;28;1139;-78
2023/04/08 09:06:31;;;;;;;;;;;;;;;5.83;100.00;102498.72;5028798;28;1064;-77
2023/04/08 09:08:56;;;;;;;;;;;;;;;6.03;100.00;102489.50;5020082;28;1337;-77
2023/04/08 09:11:21;;;;;;;;;;;;;;;6.13;100.00;102503.69;5033421;28;1066;-77
2023/04/08 09:13:47;;;;;;;;;;;;;;;6.21;100.00;102501.69;5032456;28;1124;-76
2023/04/08 09:16:13;;;;;;;;;;;;;;;6.26;100.00;102502.38;5010306;28;1200;-77
2023/04/08 09:18:42;;;;;;;;;;;;;;;6.36;100.00;102492.56;5034943;28;1139;-78
2023/04/08 09:21:07;;;;;;;;;;;;;;;6.39;100.00;102501.03;5029311;28;1098;-77
2023/04/08 09:23:49;;;;;;;;;;;;;;;6.47;100.00;102510.19;5027768;28;1153;-79
2023/04/08 09:26:21;;;;;;;;;;;;;;;6.61;100.00;102502.81;5023648;28;1055;-79
2023/04/08 09:29:00;;;;;;;;;;;;;;;6.80;100.00;102508.91;5027477;28;1302;-78
2023/04/08 09:31:27;;;;;;;;;;;;;;;6.88;100.00;102512.06;5022012;28;1098;-77
2023/04/08 09:33:59;;;;;;;;;;;;;;;7.08;100.00;102518.16;5026681;28;1066;-76
2023/04/08 09:36:28;;;;;;;;;;;;;;;6.96;100.00;102513.50;5022839;28;1239;-78
2023/04/08 09:38:53;;;;;;;;;;;;;;;7.01;100.00;102516.72;5011373;28;1983;-78
2023/04/08 09:41:20;;;;;;;;;;;;;;;7.12;100.00;102517.97;5031006;28;1187;-77
2023/04/08 09:43:55;;;;;;;;;;;;;;;7.27;100.00;102519.09;5011062;28;1369;-78
2023/04/08 09:46:31;;;;;;;;;;;;;;;7.40;100.00;102524.63;5026029;28;1511;-79
2023/04/08 09:49:13;;;;;;;;;;;;;;;7.47;100.00;102530.34;5008231;28;1263;-77
2023/04/08 09:51:43;;;;;;;;;;;;;;;7.48;100.00;102521.72;5030457;28;1366;-77
2023/04/08 09:54:11;;;;;;;;;;;;;;;7.55;100.00;102528.28;5032095;28;993;-77
2023/04/08 09:56:57;;;;;;;;;;;;;;;7.63;100.00;102526.25;5027792;28;1275;-77
2023/04/08 09:59:23;;;;;;;;;;;;;;;7.73;100.00;102532.69;5021431;28;1910;-78
2023/04/08 10:01:53;;;;;;;;;;;;;;;7.83;100.00;102530.56;5009774;28;1426;-77
2023/04/08 10:04:19;;;;;;;;;;;;;;;7.91;100.00;102524.16;5005763;28;1319;-77
2023/04/08 10:06:50;;;;;;;;;;;;;;;7.99;100.00;102513.50;5026584;28;1045;-77
2023/04/08 10:09:15;;;;;;;;;;;;;;;8.08;99.24;102512.22;5027145;28;1086;-77
2023/04/08 10:11:41;;;;;;;;;;;;;;;8.17;100.00;102514.41;5027993;28;1093;-79
2023/04/08 10:14:08;;;;;;;;;;;;;;;8.29;100.00;102500.94;5025839;28;1068;-77
2023/04/08 10:16:33;;;;;;;;;;;;;;;8.35;100.00;102500.66;5010125;28;1215;-78
2023/04/08 10:18:58;;;;;;;;;;;;;;;8.43;100.00;102498.63;5036192;28;1902;-77
2023/04/08 10:21:30;;;;;;;;;;;;;;;8.50;100.00;102507.75;5021295;28;1030;-78
2023/04/08 10:23:58;;;;;;;;;;;;;;;8.66;100.00;102504.44;5013375;28;1354;-77
2023/04/08 10:26:50;;;;;;;;;;;;;;;8.86;100.00;102506.94;5007713;28;1377;-78
2023/04/08 10:29:18;;;;;;;;;;;;;;;8.80;97.57;102509.81;5023730;28;1429;-78
2023/04/08 10:31:43;;;;;;;;;;;;;;;8.93;97.75;102504.91;5024620;28;999;-80
2023/04/08 10:34:19;;;;;;;;;;;;;;;9.03;98.70;102513.91;5028299;28;1282;-78
2023/04/08 10:36:45;;;;;;;;;;;;;;;9.19;99.07;102501.06;5029489;28;1081;-78
2023/04/08 10:39:11;;;;;;;;;;;;;;;9.27;97.57;102506.69;5025430;28;1930;-78
2023/04/08 10:41:42;;;;;;;;;;;;;;;9.35;95.63;102508.91;5032819;28;1037;-77
2023/04/08 10:44:15;;;;;;;;;;;;;;;9.41;93.86;102504.28;5038519;28;1028;-77
2023/04/08 10:46:40;;;;;;;;;;;;;;;9.41;95.67;102493.91;5024266;28;1338;-78
2023/04/08 10:49:05;;;;;;;;;;;;;;;9.49;94.81;102499.53;5035518;28;1058;-78
2023/04/08 10:51:31;;;;;;;;;;;;;;;9.58;94.16;102506.88;5018169;28;1346;-79
2023/04/08 10:54:04;;;;;;;;;;;;;;;9.63;92.49;102498.00;5025204;28;1220;-78
2023/04/08 10:56:29;;;;;;;;;;;;;;;9.66;94.12;102497.84;5025799;28;999;-77
2023/04/08 10:58:58;;;;;;;;;;;;;;;9.78;92.53;102503.25;5026509;28;1898;-78
2023/04/08 11:01:24;;;;;;;;;;;;;;;9.87;92.51;102491.56;5018366;28;1340;-76
2023/04/08 11:03:49;;;;;;;;;;;;;;;9.91;90.25;102493.06;5026227;28;1117;-78
2023/04/08 11:06:15;;;;;;;;;;;;;;;10.01;90.20;102491.69;5033597;28;1216;-78
2023/04/08 11:08:40;;;;;;;;;;;;;;;10.15;89.77;102493.56;5020626;28;1189;-78
2023/04/08 11:11:09;;;;;;;;;;;;;;;10.23;91.22;102496.59;5013251;28;1193;-78
2023/04/08 11:13:44;;;;;;;;;;;;;;;10.39;90.74;102494.03;5030414;28;1120;-79
2023/04/08 11:16:09;;;;;;;;;;;;;;;10.45;90.58;102503.25;5034120;28;963;-79
2023/04/08 11:18:36;;;;;;;;;;;;;;;10.57;91.36;102503.41;5036838;28;1058;-78
2023/04/08 11:21:01;;;;;;;;;;;;;;;10.61;87.27;102488.50;5032742;28;1894;-78
2023/04/08 11:23:27;;;;;;;;;;;;;;;10.64;88.29;102483.97;5027345;28;1121;-77
2023/04/08 11:25:52;;;;;;;;;;;;;;;10.79;87.40;102481.47;5025973;28;1109;-78
2023/04/08 11:28:18;;;;;;;;;;;;;;;10.90;87.70;102479.09;5033684;28;1148;-78
2023/04/08 11:30:43;;;;;;;;;;;;;;;10.99;82.18;102477.72;5034442;28;1132;-78
2023/04/08 11:33:09;;;;;;;;;;;;;;;10.93;76.17;102488.47;5012282;28;1200;-78
2023/04/08 11:35:38;;;;;;;;;;;;;;;11.04;80.62;102486.94;5029639;28;1021;-77
2023/04/08 11:38:04;;;;;;;;;;;;;;;11.05;79.73;102483.41;5016066;28;1311;-78
2023/04/08 11:40:29;;;;;;;;;;;;;;;11.12;79.73;102479.53;5030602;28;1882;-78
2023/04/08 11:42:54;;;;;;;;;;;;;;;11.16;81.10;102478.44;5020705;28;1203;-78
2023/04/08 11:45:20;;;;;;;;;;;;;;;11.17;80.44;102481.84;5035895;28;1042;-78
2023/04/08 11:47:46;;;;;;;;;;;;;;;11.21;79.63;102472.16;5037114;28;1115;-79
2023/04/08 11:50:11;;;;;;;;;;;;;;;11.26;77.16;102476.16;5035520;28;1244;-78
2023/04/08 11:52:43;;;;;;;;;;;;;;;11.33;80.15;102471.44;5023944;28;1298;-78
2023/04/08 11:55:09;;;;;;;;;;;;;;;11.41;81.03;102466.59;5030263;28;1060;-78
2023/04/08 11:58:04;;;;;;;;;;;;;;;11.52;81.75;102476.38;5029104;28;1120;-78
2023/04/08 12:00:31;;;;;;;;;;;;;;;11.60;80.36;102480.19;4981735;28;1894;-79
2023/04/08 12:02:57;;;;;;;;;;;;;;;11.79;82.40;102476.50;5025361;28;1091;-78
2023/04/08 12:05:22;;;;;;;;;;;;;;;11.89;80.92;102469.84;5034091;28;1098;-78
2023/04/08 12:07:47;;;;;;;;;;;;;;;11.89;74.19;102469.84;5032174;28;1144;-79
2023/04/08 12:10:13;;;;;;;;;;;;;;;11.89;75.18;102469.84;5028380;28;981;-79
2023/04/08 12:12:39;;;;;;;;;;;;;;;11.93;77.87;102468.75;5038915;28;1078;-77
2023/04/08 12:15:04;;;;;;;;;;;;;;;11.98;75.44;102466.66;5010510;28;1200;-78
2023/04/08 12:17:30;;;;;;;;;;;;;;;12.05;77.28;102470.59;5025090;28;1223;-78
2023/04/08 12:19:55;;;;;;;;;;;;;;;12.10;72.98;102465.94;5023231;28;1894;-79
2023/04/08 12:22:21;;;;;;;;;;;;;;;12.09;73.69;102466.84;5026370;28;2085;-77
2023/04/08 12:24:46;;;;;;;;;;;;;;;12.01;74.45;102463.88;5023922;28;1497;-77
2023/04/08 12:27:11;;;;;;;;;;;;;;;12.03;74.08;102467.22;5031631;28;1184;-79
2023/04/08 12:29:36;;;;;;;;;;;;;;;11.99;71.45;102465.75;5024787;28;1174;-78
2023/04/08 12:32:03;;;;;;;;;;;;;;;11.97;72.05;102467.59;5024399;28;998;-79
2023/04/08 12:34:28;;;;;;;;;;;;;;;11.99;69.66;102465.75;5016972;28;1340;-78
2023/04/08 12:36:54;;;;;;;;;;;;;;;12.01;71.63;102474.28;5012785;28;1259;-80
2023/04/08 12:39:20;;;;;;;;;;;;;;;11.99;68.98;102470.97;5020784;28;1946;-79
2023/04/08 12:41:45;;;;;;;;;;;;;;;12.00;71.61;102475.22;5024650;28;1183;-78
2023/04/08 12:44:10;;;;;;;;;;;;;;;12.02;70.95;102470.75;5037910;28;1308;-78